Time;durP1;ratioP1;P1;durP2;ratioP2;P2;SDS_P1;SDS_P2;PMS_P1;PMS_P2;Temp;Humidity;BMP_temperature;BMP_pressure;BME280_temperature;BME280_humidity;BME280_pressure;Samples;Min_cycle;Max_cycle;Signal;HPM_P1;HPM_P2
2022/05/28 00:01:38;;;;;;;1.92;1.62;;;;;;;15.55;67.85;95360.08;1863118;77;21041;-63
2022/05/28 00:04:05;;;;;;;3.30;1.80;;;;;;;15.53;68.51;95362.40;1863187;77;21004;-62
2022/05/28 00:06:34;;;;;;;3.37;1.92;;;;;;;15.47;68.81;95363.53;1862879;77;20974;-63
2022/05/28 00:09:03;;;;;;;4.05;1.92;;;;;;;15.43;68.86;95369.03;1863240;77;21010;-63
2022/05/28 00:11:35;;;;;;;5.72;1.60;;;;;;;15.36;69.02;95366.60;1863231;77;20989;-62
2022/05/28 00:14:02;;;;;;;2.20;1.80;;;;;;;15.33;69.35;95360.09;1863369;77;21025;-63
2022/05/28 00:33:10;;;;;;;2.95;1.20;;;;;;;16.18;66.92;95350.75;1808872;79;23112;-63
2022/05/28 00:35:41;;;;;;;4.03;1.70;;;;;;;15.79;67.82;95340.90;1779731;81;21026;-63
2022/05/28 00:38:07;;;;;;;3.22;1.32;;;;;;;15.54;68.29;95333.53;1779899;81;21015;-63
2022/05/28 00:40:35;;;;;;;1.50;1.37;;;;;;;15.31;69.35;95346.46;1779790;80;21437;-63
2022/05/28 00:43:04;;;;;;;5.83;1.40;;;;;;;15.15;69.60;95350.22;1780108;81;20995;-63
2022/05/28 00:45:33;;;;;;;2.15;1.32;;;;;;;15.05;70.12;95347.06;1780090;80;21038;-63
2022/05/28 00:48:04;;;;;;;2.80;1.65;;;;;;;14.93;70.51;95335.59;1780103;80;21061;-63
2022/05/28 00:50:33;;;;;;;1.50;1.40;;;;;;;14.78;71.12;95333.54;1780140;80;21041;-63
2022/05/28 00:53:01;;;;;;;1.70;1.15;;;;;;;14.60;71.11;95328.02;1779991;81;21102;-63
2022/05/28 00:55:34;;;;;;;2.02;1.42;;;;;;;14.53;71.55;95334.91;1780037;81;21054;-63
2022/05/28 00:58:04;;;;;;;1.87;1.50;;;;;;;14.50;71.50;95338.09;1780236;81;21014;-63
2022/05/28 01:00:33;;;;;;;1.95;1.22;;;;;;;14.46;71.61;95348.44;1780097;81;21054;-63
2022/05/28 01:03:16;;;;;;;2.15;1.30;;;;;;;14.40;71.96;95347.79;1780034;80;21389;-63
2022/05/28 01:06:00;;;;;;;3.00;1.30;;;;;;;14.39;72.08;95344.71;1780141;81;21010;-63
2022/05/28 01:09:08;;;;;;;2.02;1.50;;;;;;;14.33;72.49;95350.27;1767527;81;21058;-63
2022/05/28 01:11:43;;;;;;;2.50;1.17;;;;;;;14.32;72.41;95364.00;1779859;81;20963;-63
2022/05/28 01:14:30;;;;;;;3.85;1.60;;;;;;;14.36;72.29;95352.33;1779944;80;21023;-63
2022/05/28 01:17:05;;;;;;;2.85;1.20;;;;;;;14.38;72.06;95356.27;1780266;80;20999;-63
2022/05/28 01:19:52;;;;;;;1.37;1.00;;;;;;;14.38;72.25;95346.50;1778716;81;21022;-63
2022/05/28 01:22:46;;;;;;;2.95;1.25;;;;;;;14.34;72.30;95338.28;1778300;81;21504;-63
2022/05/28 01:25:33;;;;;;;;;;;;;;;14.31;72.83;95340.16;1782217;81;21083;-63
2022/05/28 01:28:11;;;;;;;1.30;1.17;;;;;;;14.32;73.11;95340.11;1779675;81;20116;-63
2022/05/28 01:30:41;;;;;;;1.32;1.20;;;;;;;14.35;73.78;95328.52;1779891;80;21027;-63
2022/05/28 01:33:10;;;;;;;2.47;1.40;;;;;;;14.41;73.85;95326.51;1779612;80;21062;-63
2022/05/28 01:35:37;;;;;;;5.45;1.47;;;;;;;14.42;74.09;95316.75;1779540;80;21042;-63
2022/05/28 01:38:05;;;;;;;2.87;1.50;;;;;;;14.37;74.18;95324.88;1779596;81;20968;-63
2022/05/28 01:40:34;;;;;;;2.45;2.25;;;;;;;14.29;75.14;95325.64;1779499;81;20975;-63
2022/05/28 01:43:05;;;;;;;2.10;1.90;;;;;;;14.28;75.25;95327.41;1751172;81;20975;-63
2022/05/28 01:45:33;;;;;;;2.50;1.50;;;;;;;14.18;76.09;95335.77;1779445;80;20998;-63
2022/05/28 01:48:04;;;;;;;1.90;1.40;;;;;;;14.13;76.68;95341.70;1779314;80;21074;-63
2022/05/28 01:50:36;;;;;;;2.27;1.60;;;;;;;14.10;75.84;95338.70;1779096;81;21039;-63
2022/05/28 01:53:06;;;;;;;1.72;1.42;;;;;;;14.06;77.76;95327.78;1779564;81;21007;-64
2022/05/28 01:55:38;;;;;;;1.60;1.40;;;;;;;14.03;77.08;95341.17;1779437;80;21516;-63
2022/05/28 01:58:05;;;;;;;1.40;1.30;;;;;;;13.97;76.40;95341.41;1779518;80;20999;-63
2022/05/28 02:00:32;;;;;;;1.85;1.40;;;;;;;13.86;77.13;95335.16;1779596;81;21055;-63
2022/05/28 02:03:01;;;;;;;1.60;1.50;;;;;;;13.86;78.14;95332.52;1779083;81;21003;-63
2022/05/28 02:05:28;;;;;;;3.02;1.70;;;;;;;13.92;77.80;95332.75;1779408;81;21014;-63
2022/05/28 02:07:54;;;;;;;5.50;1.67;;;;;;;13.93;77.95;95330.48;1779413;81;21082;-63
2022/05/28 02:10:24;;;;;;;1.37;1.27;;;;;;;13.93;78.41;95329.16;1779221;80;21022;-63
2022/05/28 02:13:14;;;;;;;1.82;1.55;;;;;;;13.85;78.47;95322.34;1779523;81;21042;-63
2022/05/28 02:15:52;;;;;;;2.92;1.60;;;;;;;13.81;78.93;95315.91;1779139;81;21512;-63
2022/05/28 02:18:30;;;;;;;2.17;1.40;;;;;;;13.82;78.87;95318.95;1777565;81;20959;-63
2022/05/28 02:21:10;;;;;;;3.37;1.57;;;;;;;13.77;79.29;95321.75;1779007;80;21016;-63
2022/05/28 02:23:42;;;;;;;2.77;2.20;;;;;;;13.75;80.82;95318.75;1751502;81;21042;-63
2022/05/28 02:26:24;;;;;;;2.95;2.05;;;;;;;13.83;79.88;95318.02;1779255;80;21018;-63
2022/05/28 02:28:52;;;;;;;3.72;2.70;;;;;;;13.89;79.96;95317.81;1778589;81;21078;-63
2022/05/28 02:31:27;;;;;;;2.42;2.17;;;;;;;13.98;79.34;95318.78;1779458;80;20991;-64
2022/05/28 02:33:53;;;;;;;1.90;1.45;;;;;;;14.07;78.91;95308.31;1784623;80;21026;-63
2022/05/28 02:36:20;;;;;;;2.42;1.20;;;;;;;14.06;78.65;95314.09;1785081;80;21779;-63
2022/05/28 02:38:47;;;;;;;2.02;1.30;;;;;;;14.09;78.20;95331.68;1785006;80;21010;-63
2022/05/28 02:41:14;;;;;;;2.12;1.22;;;;;;;14.11;78.25;95334.26;1785067;80;21019;-63
2022/05/28 02:43:41;;;;;;;1.57;1.47;;;;;;;14.21;78.00;95321.95;1784865;80;21499;-63
2022/05/28 02:46:08;;;;;;;2.20;1.12;;;;;;;14.17;77.42;95318.12;1784873;80;21006;-63
2022/05/28 02:48:37;;;;;;;2.25;1.50;;;;;;;14.11;78.37;95332.93;1784988;80;21476;-63
2022/05/28 02:51:11;;;;;;;3.12;1.62;;;;;;;14.06;78.41;95333.09;1784641;80;21030;-63
2022/05/28 02:53:38;;;;;;;2.15;1.30;;;;;;;13.98;78.29;95333.84;1784615;80;21018;-63
2022/05/28 02:56:07;;;;;;;5.25;1.40;;;;;;;13.94;78.26;95346.36;1785077;80;21090;-63
2022/05/28 02:58:34;;;;;;;2.08;1.52;;;;;;;13.95;79.40;95347.22;1784543;80;21018;-63
2022/05/28 03:01:03;;;;;;;3.05;1.50;;;;;;;14.00;78.69;95335.52;1784969;80;21068;-63
2022/05/28 03:03:29;;;;;;;1.47;1.37;;;;;;;14.03;77.96;95347.80;1784940;80;21468;-63
2022/05/28 03:05:56;;;;;;;1.35;1.15;;;;;;;13.99;78.75;95354.16;1785141;80;21030;-63
2022/05/28 03:08:22;;;;;;;2.17;1.10;;;;;;;13.93;78.16;95362.31;1784949;80;20975;-63
2022/05/28 03:10:49;;;;;;;3.05;1.50;;;;;;;13.89;78.29;95368.67;1784905;80;21516;-63
2022/05/28 03:13:15;;;;;;;1.40;1.30;;;;;;;13.81;78.29;95380.41;1784654;80;21041;-63
2022/05/28 03:15:41;;;;;;;2.65;1.50;;;;;;;13.73;79.46;95385.08;1784872;80;21078;-63
2022/05/28 03:18:08;;;;;;;2.85;1.27;;;;;;;13.78;79.06;95391.13;1784978;80;21011;-63
2022/05/28 03:20:35;;;;;;;2.95;1.32;;;;;;;13.76;78.97;95410.20;1784920;80;20983;-63
2022/05/28 03:23:01;;;;;;;1.50;1.27;;;;;;;13.76;78.36;95403.56;1785197;80;21002;-63
2022/05/28 03:25:27;;;;;;;2.10;1.60;;;;;;;13.77;78.05;95404.42;1785061;80;21038;-63
2022/05/28 03:27:54;;;;;;;1.47;1.37;;;;;;;13.78;78.41;95416.75;1784513;80;21041;-63
2022/05/28 03:30:21;;;;;;;4.00;1.60;;;;;;;13.70;78.46;95413.50;1785085;80;21033;-63
2022/05/28 03:32:47;;;;;;;4.10;1.80;;;;;;;13.67;78.70;95421.56;1782047;80;21484;-63
2022/05/28 03:35:14;;;;;;;1.90;1.20;;;;;;;13.66;78.42;95427.33;1779285;80;21042;-63
2022/05/28 03:37:40;;;;;;;1.90;1.50;;;;;;;13.66;78.66;95427.33;1779076;80;21629;-63
2022/05/28 03:40:09;;;;;;;1.20;1.07;;;;;;;13.61;79.72;95419.99;1779600;81;20991;-63
2022/05/28 03:42:35;;;;;;;1.27;1.10;;;;;;;13.60;79.39;95415.13;1779398;81;21510;-63
2022/05/28 03:45:03;;;;;;;1.92;1.07;;;;;;;13.61;79.19;95413.36;1779543;81;21042;-63
2022/05/28 03:47:31;;;;;;;1.50;0.80;;;;;;;13.60;79.40;95412.94;1779404;81;21527;-63
2022/05/28 03:49:58;;;;;;;2.83;0.95;;;;;;;13.58;80.12;95402.84;1779311;81;21034;-63
2022/05/28 03:52:25;;;;;;;4.65;0.98;;;;;;;13.57;80.36;95400.66;1779411;81;21472;-63
2022/05/28 03:54:51;;;;;;;1.75;0.90;;;;;;;13.62;80.66;95393.41;1779623;80;20979;-63
2022/05/28 03:57:31;;;;;;;1.10;1.00;;;;;;;13.60;79.71;95390.41;1779097;81;21034;-63
2022/05/28 03:59:59;;;;;;;1.27;1.17;;;;;;;13.60;79.35;95383.77;1779387;80;21003;-63
2022/05/28 04:02:26;;;;;;;2.95;1.30;;;;;;;13.59;80.05;95378.94;1779318;80;21022;-63
2022/05/28 04:04:53;;;;;;;2.95;1.10;;;;;;;13.72;80.54;95377.20;1779526;81;21015;-63
2022/05/28 04:07:20;;;;;;;2.05;1.40;;;;;;;13.81;80.36;95372.92;1779324;81;21495;-63
2022/05/28 04:09:47;;;;;;;1.90;1.37;;;;;;;13.89;80.25;95369.99;1779510;81;20995;-63
2022/05/28 04:12:14;;;;;;;2.22;1.20;;;;;;;13.83;79.70;95360.01;1779142;81;21007;-63
2022/05/28 04:14:41;;;;;;;1.82;1.40;;;;;;;13.86;80.43;95360.36;1779085;80;21046;-63
2022/05/28 04:17:08;;;;;;;2.17;1.20;;;;;;;13.96;80.33;95354.24;1779150;80;21492;-63
2022/05/28 04:19:34;;;;;;;2.83;1.37;;;;;;;14.08;80.14;95349.83;1779620;81;21007;-63
2022/05/28 04:22:00;;;;;;;1.90;1.45;;;;;;;14.12;79.98;95344.83;1779157;80;21055;-63
2022/05/28 04:24:27;;;;;;;1.45;1.15;;;;;;;14.14;79.61;95345.64;1779029;81;21078;-63
2022/05/28 04:26:53;;;;;;;2.20;1.27;;;;;;;14.15;79.77;95343.84;1779178;81;21118;-63
2022/05/28 04:29:20;;;;;;;3.40;1.50;;;;;;;14.14;79.70;95344.31;1779372;81;21022;-63
2022/05/28 04:31:46;;;;;;;1.20;1.10;;;;;;;14.28;79.58;95342.47;1779412;81;21003;-63
2022/05/28 04:34:13;;;;;;;2.85;1.57;;;;;;;14.32;78.63;95340.11;1779340;80;21464;-63
2022/05/28 04:36:39;;;;;;;1.40;1.30;;;;;;;14.38;78.72;95345.18;1779274;80;21519;-63
2022/05/28 04:39:06;;;;;;;3.12;1.60;;;;;;;14.29;79.00;95345.08;1779345;81;21054;-63
2022/05/28 04:41:33;;;;;;;2.27;1.85;;;;;;;14.30;79.06;95344.61;1779611;81;21041;-63
2022/05/28 04:44:00;;;;;;;2.42;2.20;;;;;;;14.23;78.73;95343.09;1779175;81;21015;-63
2022/05/28 04:46:26;;;;;;;1.95;1.72;;;;;;;14.21;79.06;95349.81;1779570;80;20959;-63
2022/05/28 04:48:53;;;;;;;2.58;2.08;;;;;;;14.25;79.43;95347.42;1779431;81;21046;-63
2022/05/28 04:51:19;;;;;;;2.22;1.98;;;;;;;14.28;79.61;95337.16;1779542;80;20990;-63
2022/05/28 04:53:46;;;;;;;2.12;1.85;;;;;;;14.27;79.42;95336.30;1779172;81;21054;-63
2022/05/28 04:56:14;;;;;;;4.30;1.85;;;;;;;14.34;79.37;95338.71;1779426;81;20987;-63
2022/05/28 04:58:42;;;;;;;3.05;1.80;;;;;;;14.33;78.81;95340.97;1778915;81;21519;-63
2022/05/28 05:01:12;;;;;;;1.98;1.55;;;;;;;14.37;78.78;95338.63;1779315;81;21441;-63
2022/05/28 05:03:39;;;;;;;4.17;1.62;;;;;;;14.34;78.37;95335.63;1779341;81;21018;-63
2022/05/28 05:06:06;;;;;;;1.80;1.70;;;;;;;14.30;78.96;95331.34;1779429;81;20948;-63
2022/05/28 05:08:33;;;;;;;1.55;1.45;;;;;;;14.31;78.54;95341.02;1779513;80;21488;-63
2022/05/28 05:11:00;;;;;;;2.37;1.70;;;;;;;14.28;78.56;95342.47;1751339;81;20991;-63
2022/05/28 05:13:27;;;;;;;1.80;1.50;;;;;;;14.30;79.05;95344.61;1779207;81;21065;-63
2022/05/28 05:15:54;;;;;;;2.95;1.40;;;;;;;14.25;79.98;95347.89;1779579;80;21504;-63
2022/05/28 05:18:20;;;;;;;1.90;1.57;;;;;;;14.31;80.36;95344.14;1779574;81;21285;-63
2022/05/28 05:20:48;;;;;;;2.65;1.40;;;;;;;14.36;78.99;95349.67;1779388;81;20971;-63
2022/05/28 05:23:17;;;;;;;1.80;1.67;;;;;;;14.40;78.54;95351.77;1779437;80;20995;-63
2022/05/28 05:25:44;;;;;;;2.00;1.80;;;;;;;14.44;78.56;95348.95;1779464;81;21488;-63
2022/05/28 05:28:11;;;;;;;1.70;1.60;;;;;;;14.48;78.00;95347.03;1778946;81;21145;-63
2022/05/28 05:30:37;;;;;;;3.10;1.50;;;;;;;14.61;77.88;95348.79;1779611;80;20971;-64
2022/05/28 05:33:04;;;;;;;2.60;1.85;;;;;;;14.74;77.78;95345.20;1781557;80;21014;-63
2022/05/28 05:35:31;;;;;;;1.85;1.60;;;;;;;14.83;76.44;95347.50;1784719;80;21022;-63
2022/05/28 05:38:05;;;;;;;2.37;1.42;;;;;;;14.92;76.06;95345.36;1785098;80;21045;-63
2022/05/28 05:40:26;;;;;;;2.20;1.50;;;;;;;15.01;75.57;95350.75;1783296;80;21023;-63
2022/05/28 05:42:52;;;;;;;1.27;1.17;;;;;;;14.98;74.99;95346.89;1784854;80;20987;-63
2022/05/28 05:45:19;;;;;;;2.60;1.30;;;;;;;15.01;74.88;95344.11;1784911;80;21018;-63
2022/05/28 05:47:45;;;;;;;4.00;1.35;;;;;;;15.05;75.68;95344.87;1784776;80;21007;-63
2022/05/28 05:50:12;;;;;;;2.37;1.37;;;;;;;15.17;75.14;95343.05;1784998;80;21496;-63
2022/05/28 05:52:40;;;;;;;2.22;1.47;;;;;;;15.36;75.27;95356.44;1785205;80;21014;-63
2022/05/28 05:55:08;;;;;;;2.47;1.47;;;;;;;15.48;74.41;95365.25;1785155;80;21007;-63
2022/05/28 05:57:35;;;;;;;1.95;1.40;;;;;;;15.56;73.96;95355.62;1785122;80;21034;-63
2022/05/28 06:00:01;;;;;;;0.95;0.93;;;;;;;15.57;72.70;95362.21;1784910;80;21049;-63
2022/05/28 06:02:28;;;;;;;1.12;1.02;;;;;;;15.53;71.63;95355.28;1784908;80;21014;-63
2022/05/28 06:04:54;;;;;;;1.25;1.10;;;;;;;15.48;70.55;95358.59;1784789;80;21018;-63
2022/05/28 06:07:20;;;;;;;2.42;1.37;;;;;;;15.50;71.31;95353.23;1785032;80;20994;-63
2022/05/28 06:09:47;;;;;;;0.95;0.95;;;;;;;15.46;70.61;95356.46;1784988;80;20971;-63
2022/05/28 06:12:13;;;;;;;2.65;1.00;;;;;;;15.39;71.28;95359.44;1784672;80;21504;-63
2022/05/28 06:14:40;;;;;;;1.30;1.10;;;;;;;15.20;72.35;95362.86;1784583;80;21031;-63
2022/05/28 06:17:06;;;;;;;1.50;0.95;;;;;;;15.08;72.00;95361.55;1785000;80;20987;-63
2022/05/28 06:19:33;;;;;;;2.72;1.02;;;;;;;15.06;70.07;95367.37;1784796;80;21125;-63
2022/05/28 06:22:01;;;;;;;2.40;1.15;;;;;;;14.99;69.54;95366.35;1758757;80;21503;-63
2022/05/28 06:24:28;;;;;;;3.17;1.07;;;;;;;14.86;69.76;95369.95;1784900;80;20971;-63
2022/05/28 06:27:00;;;;;;;1.92;1.10;;;;;;;14.91;70.22;95369.31;1784926;80;21050;-63
2022/05/28 06:29:28;;;;;;;1.17;1.05;;;;;;;14.96;69.51;95366.02;1784953;80;21078;-63
2022/05/28 06:31:55;;;;;;;2.60;0.90;;;;;;;15.02;69.34;95364.90;1785040;80;21031;-63
2022/05/28 06:34:22;;;;;;;2.87;1.12;;;;;;;14.98;69.14;95373.94;1784929;80;21035;-63
2022/05/28 06:36:49;;;;;;;2.70;1.20;;;;;;;15.04;68.93;95371.02;1784915;80;21029;-63
2022/05/28 06:39:15;;;;;;;2.85;1.10;;;;;;;15.09;69.25;95366.39;1785188;80;21010;-63
2022/05/28 06:41:42;;;;;;;3.62;1.47;;;;;;;15.11;70.33;95371.19;1784995;80;20967;-63
2022/05/28 06:44:08;;;;;;;2.50;1.40;;;;;;;15.04;69.78;95369.22;1745372;80;20999;-63
2022/05/28 06:46:35;;;;;;;3.20;1.15;;;;;;;14.96;68.61;95373.98;1785035;80;21018;-63
2022/05/28 06:49:01;;;;;;;2.20;1.33;;;;;;;14.92;69.66;95378.56;1784954;80;21042;-63
2022/05/28 06:51:28;;;;;;;2.00;1.20;;;;;;;15.00;69.32;95381.39;1784528;80;21067;-63
2022/05/28 06:53:54;;;;;;;1.32;0.98;;;;;;;15.03;67.39;95375.48;1785204;80;21006;-63
2022/05/28 06:56:21;;;;;;;1.20;0.90;;;;;;;15.11;66.44;95377.36;1785016;80;21074;-63
2022/05/28 06:58:48;;;;;;;5.22;1.60;;;;;;;15.09;64.38;95377.02;1784687;80;21011;-63
2022/05/28 07:01:17;;;;;;;1.52;1.20;;;;;;;15.02;65.99;95380.40;1784633;80;21065;-63
2022/05/28 07:03:44;;;;;;;1.55;1.30;;;;;;;15.09;65.39;95378.34;1785007;80;20998;-63
2022/05/28 07:06:12;;;;;;;1.57;1.22;;;;;;;15.11;65.71;95374.70;1784644;80;21030;-63
2022/05/28 07:08:39;;;;;;;2.27;2.00;;;;;;;15.15;66.02;95368.34;1784919;80;21428;-63
2022/05/28 07:11:06;;;;;;;3.77;2.95;;;;;;;15.11;65.52;95370.72;1784965;80;20979;-63
2022/05/28 07:13:35;;;;;;;4.87;3.50;;;;;;;15.08;65.81;95378.81;1784613;80;21022;-63
2022/05/28 07:16:03;;;;;;;4.45;2.67;;;;;;;15.02;67.46;95374.20;1784864;80;21022;-63
2022/05/28 07:18:30;;;;;;;2.58;2.37;;;;;;;14.95;66.99;95378.05;1745699;80;20984;-63
2022/05/28 07:20:57;;;;;;;3.85;2.05;;;;;;;14.83;67.45;95378.05;1784936;80;21036;-63
2022/05/28 07:23:29;;;;;;;2.55;1.75;;;;;;;14.76;67.81;95376.08;1785113;80;20959;-63
2022/05/28 07:26:06;;;;;;;1.80;1.67;;;;;;;14.65;68.00;95378.30;1784777;80;21014;-63
2022/05/28 07:28:36;;;;;;;3.17;1.90;;;;;;;14.51;68.49;95384.08;1785079;80;21018;-63
2022/05/28 07:31:07;;;;;;;3.22;2.33;;;;;;;14.40;68.95;95391.12;1784953;80;21058;-63
2022/05/28 07:33:41;;;;;;;4.40;2.35;;;;;;;14.24;69.40;95392.15;1784696;80;21495;-63
2022/05/28 07:36:12;;;;;;;3.08;1.75;;;;;;;14.15;69.75;95385.84;1785045;80;21019;-63
2022/05/28 07:38:39;;;;;;;2.42;1.72;;;;;;;14.10;70.63;95405.03;1784928;80;21488;-63
2022/05/28 07:41:11;;;;;;;2.83;1.60;;;;;;;14.06;71.51;95409.59;1784813;80;21022;-63
2022/05/28 07:43:37;;;;;;;2.80;1.60;;;;;;;14.06;72.77;95401.64;1784852;80;21015;-63
2022/05/28 07:46:14;;;;;;;2.33;1.67;;;;;;;14.11;72.54;95385.99;1784981;80;20991;-63
2022/05/28 07:48:42;;;;;;;2.00;1.70;;;;;;;14.21;72.32;95376.78;1783869;80;21039;-63
2022/05/28 07:51:09;;;;;;;3.47;1.62;;;;;;;14.31;72.07;95399.41;1785203;80;21010;-63
2022/05/28 07:53:35;;;;;;;4.85;3.52;;;;;;;14.34;72.52;95398.00;1785015;80;21067;-63
2022/05/28 07:56:04;;;;;;;3.12;2.72;;;;;;;14.29;72.38;95381.38;1784625;80;21544;-63
2022/05/28 07:58:31;;;;;;;2.72;2.02;;;;;;;14.14;71.87;95384.58;1745802;80;20995;-63
2022/05/28 08:00:59;;;;;;;6.25;1.62;;;;;;;14.16;73.39;95393.33;1784686;80;21007;-63
2022/05/28 08:03:26;;;;;;;2.22;1.80;;;;;;;14.25;73.81;95381.06;1784957;80;20979;-63
2022/05/28 08:05:55;;;;;;;2.47;1.70;;;;;;;14.34;73.57;95375.87;1784967;80;21030;-63
2022/05/28 08:08:25;;;;;;;4.47;1.98;;;;;;;14.43;74.97;95367.11;1784818;80;20983;-63
2022/05/28 08:10:53;;;;;;;3.72;1.80;;;;;;;14.57;74.15;95377.26;1785069;80;21034;-63
2022/05/28 08:13:23;;;;;;;2.67;1.60;;;;;;;14.65;74.35;95372.98;1784946;80;21050;-64
2022/05/28 08:15:52;;;;;;;1.82;1.67;;;;;;;14.75;73.06;95379.67;1784652;80;21484;-63
2022/05/28 08:18:27;;;;;;;3.80;3.40;;;;;;;14.75;71.70;95381.47;1784932;80;21006;-63
2022/05/28 08:23:40;;;;;;;2.77;1.90;;;;;;;14.62;70.49;95378.42;1784881;80;21203;-63
2022/05/28 08:26:09;;;;;;;3.93;1.80;;;;;;;14.72;71.68;95371.83;1785065;80;21007;-63
2022/05/28 08:28:38;;;;;;;2.27;1.98;;;;;;;14.86;72.44;95364.64;1784846;80;21018;-63
2022/05/28 08:31:05;;;;;;;2.05;1.80;;;;;;;14.87;70.94;95363.73;1784594;80;20959;-63
2022/05/28 08:33:32;;;;;;;3.10;2.27;;;;;;;14.99;70.77;95372.53;1783557;80;21050;-63
2022/05/28 08:35:59;;;;;;;2.22;1.72;;;;;;;15.08;71.36;95372.64;1779076;81;21023;-63
2022/05/28 08:38:28;;;;;;;3.33;2.33;;;;;;;15.14;70.59;95375.94;1779302;80;21543;-63
2022/05/28 08:41:19;;;;;;;1.92;1.82;;;;;;;15.15;70.81;95379.45;1779540;81;21448;-63
2022/05/28 08:44:17;;;;;;;2.30;1.80;;;;;;;15.08;69.45;95368.66;1779384;81;21505;-63
2022/05/28 08:46:48;;;;;;;2.50;2.02;;;;;;;15.07;70.04;95367.80;1779557;80;21027;-63
2022/05/28 08:49:15;;;;;;;2.20;2.00;;;;;;;15.03;69.83;95374.62;1769422;81;21019;-63
2022/05/28 08:51:52;;;;;;;4.45;2.30;;;;;;;15.03;71.51;95379.94;1779451;81;20994;-63
2022/05/28 08:54:59;;;;;;;4.92;1.95;;;;;;;15.06;70.61;95371.83;1779577;81;20991;-63
2022/05/28 08:57:38;;;;;;;2.00;1.50;;;;;;;15.17;70.62;95384.69;1779429;81;21457;-63
2022/05/28 09:00:14;;;;;;;2.50;1.55;;;;;;;15.28;69.03;95388.66;1779584;80;21011;-63
2022/05/28 09:02:51;;;;;;;3.50;1.67;;;;;;;15.35;67.96;95394.59;1778784;81;21012;-63
2022/05/28 09:05:28;;;;;;;2.80;1.80;;;;;;;15.40;67.33;95389.10;1778017;81;20998;-63
2022/05/28 09:07:59;;;;;;;2.30;1.60;;;;;;;15.45;67.31;95389.78;1778894;81;21027;-63
2022/05/28 09:10:33;;;;;;;3.52;1.62;;;;;;;15.50;65.92;95377.16;1779518;80;20979;-63
2022/05/28 09:13:05;;;;;;;3.05;1.55;;;;;;;15.61;65.16;95384.68;1779410;81;20999;-63
2022/05/28 09:15:33;;;;;;;2.55;1.70;;;;;;;15.63;65.34;95392.14;1779471;80;21456;-63
2022/05/28 09:18:00;;;;;;;2.00;1.80;;;;;;;15.63;64.37;95396.13;1751119;81;20984;-63
2022/05/28 09:20:35;;;;;;;3.08;1.90;;;;;;;15.56;64.90;95391.05;1779793;80;21014;-63
2022/05/28 09:23:02;;;;;;;2.22;1.98;;;;;;;15.53;65.76;95399.16;1779344;81;21133;-63
2022/05/28 09:25:34;;;;;;;3.45;1.90;;;;;;;15.53;66.04;95405.80;1779407;81;21026;-63
2022/05/28 09:28:11;;;;;;;2.87;2.05;;;;;;;15.52;65.94;95403.20;1779421;81;21026;-63
2022/05/28 09:31:28;;;;;;;3.52;2.10;;;;;;;15.48;66.94;95394.49;1779525;80;21030;-63
2022/05/28 09:34:15;;;;;;;3.37;2.10;;;;;;;15.48;67.68;95405.59;1778234;80;21474;-63
2022/05/28 09:37:02;;;;;;;4.42;1.52;;;;;;;15.43;67.22;95401.80;1779089;81;21070;-63
2022/05/28 09:39:37;;;;;;;2.47;1.70;;;;;;;15.34;65.09;95406.14;1779293;81;21013;-63
2022/05/28 09:42:24;;;;;;;35.80;31.42;;;;;;;15.33;65.77;95401.77;1779559;80;21468;-63
2022/05/28 09:45:00;;;;;;;23.98;18.20;;;;;;;15.27;65.04;95402.88;1779017;81;21026;-63
2022/05/28 09:47:27;;;;;;;8.15;5.35;;;;;;;15.21;65.01;95400.45;1779314;81;21043;-63
2022/05/28 09:49:56;;;;;;;6.10;4.00;;;;;;;15.18;67.31;95398.39;1779466;81;21524;-63
2022/05/28 09:52:28;;;;;;;3.72;2.12;;;;;;;15.17;66.11;95404.18;1751466;81;21492;-63
2022/05/28 09:55:18;;;;;;;2.72;1.80;;;;;;;15.16;65.97;95405.09;1779294;80;21501;-63
2022/05/28 09:58:04;;;;;;;4.37;1.85;;;;;;;15.11;68.90;95395.96;1779382;81;21055;-63
2022/05/28 10:00:32;;;;;;;1.98;1.52;;;;;;;15.01;66.42;95388.42;1779072;81;21484;-63
2022/05/28 10:05:56;;;;;;;3.10;1.62;;;;;;;14.97;71.41;95383.70;1779721;81;21011;-63
2022/05/28 10:08:32;;;;;;;2.65;1.40;;;;;;;14.99;73.67;95390.27;1779465;80;21026;-63
2022/05/28 10:11:05;;;;;;;2.42;1.60;;;;;;;14.94;72.29;95395.75;1779528;81;21457;-63
2022/05/28 10:13:52;;;;;;;2.52;1.90;;;;;;;14.98;71.97;95393.39;1779561;80;21046;-63
2022/05/28 10:16:23;;;;;;;3.83;2.55;;;;;;;14.99;72.17;95391.13;1777963;81;21453;-63
2022/05/28 10:18:58;;;;;;;7.22;3.65;;;;;;;15.07;72.86;95390.86;1779424;80;21015;-63
2022/05/28 10:21:34;;;;;;;5.83;3.40;;;;;;;15.12;70.60;95387.08;1779324;81;21007;-63
2022/05/28 10:24:05;;;;;;;3.55;2.25;;;;;;;15.21;69.18;95377.86;1779669;80;21003;-63
2022/05/28 10:26:42;;;;;;;3.12;2.20;;;;;;;15.30;67.72;95376.64;1779442;81;21484;-63
2022/05/28 10:29:38;;;;;;;3.10;1.80;;;;;;;15.39;67.64;95378.05;1777491;81;20984;-63
2022/05/28 10:32:19;;;;;;;12.70;2.83;;;;;;;15.43;67.98;95379.20;1777529;81;21015;-63
2022/05/28 10:34:48;;;;;;;4.30;2.35;;;;;;;15.50;67.26;95378.02;1780617;80;21030;-63
2022/05/28 10:37:19;;;;;;;2.77;1.70;;;;;;;15.48;65.83;95385.66;1783204;80;21070;-63
2022/05/28 10:39:47;;;;;;;3.42;2.40;;;;;;;15.46;66.08;95376.88;1759173;80;21006;-63
2022/05/28 10:42:15;;;;;;;6.50;2.22;;;;;;;15.48;65.76;95376.35;1784430;80;21080;-63
2022/05/28 10:44:44;;;;;;;3.62;2.22;;;;;;;15.49;66.92;95369.62;1746012;80;20967;-63
2022/05/28 10:47:34;;;;;;;5.97;2.55;;;;;;;15.42;67.61;95363.29;1785075;80;20975;-63
2022/05/28 10:50:31;;;;;;;3.77;3.10;;;;;;;15.26;67.99;95362.59;1784474;80;21034;-63
2022/05/28 10:53:15;;;;;;;5.67;2.90;;;;;;;15.30;69.80;95355.38;1775109;80;21023;-63
2022/05/28 10:55:59;;;;;;;4.97;2.83;;;;;;;15.20;66.91;95373.48;1784642;80;21006;-63
2022/05/28 10:58:48;;;;;;;3.83;3.20;;;;;;;15.13;67.73;95349.41;1784941;80;21015;-63
2022/05/28 11:01:41;;;;;;;7.75;4.03;;;;;;;15.15;69.28;95368.82;1784984;80;20999;-63
2022/05/28 11:04:56;;;;;;;19.50;7.12;;;;;;;15.15;69.92;95370.15;1784792;80;21054;-63
2022/05/28 11:07:40;;;;;;;7.58;4.28;;;;;;;15.17;70.25;95380.70;1784969;80;21007;-63
2022/05/28 11:10:18;;;;;;;7.33;3.92;;;;;;;15.07;69.17;95371.78;1784994;80;21011;-63
2022/05/28 11:13:08;;;;;;;4.25;3.83;;;;;;;14.96;69.10;95383.28;1784984;80;21475;-63
2022/05/28 11:16:17;;;;;;;8.98;5.92;;;;;;;14.90;69.41;95393.69;1784242;80;21133;-63
2022/05/28 11:19:15;;;;;;;6.33;5.05;;;;;;;14.88;69.95;95384.91;1784964;80;20959;-63
2022/05/28 11:22:12;;;;;;;4.25;3.80;;;;;;;14.97;69.64;95392.11;1784861;80;21069;-63
2022/05/28 11:24:55;;;;;;;5.50;3.20;;;;;;;15.02;70.01;95398.11;1784447;80;21042;-63
2022/05/28 11:27:36;;;;;;;4.10;2.67;;;;;;;15.04;71.29;95389.16;1785035;80;21504;-64
2022/05/28 11:30:10;;;;;;;2.90;2.50;;;;;;;15.09;70.44;95384.55;1784827;80;21516;-63
2022/05/28 11:33:05;;;;;;;6.42;4.40;;;;;;;15.11;70.17;95382.67;1784911;80;20987;-63
2022/05/28 11:35:50;;;;;;;5.30;3.00;;;;;;;15.13;69.77;95382.63;1784629;80;21030;-63
2022/05/28 11:38:34;;;;;;;4.92;3.58;;;;;;;15.13;71.28;95391.92;1784726;80;20972;-63
2022/05/28 11:41:39;;;;;;;3.10;2.80;;;;;;;15.23;70.89;95396.42;1784622;80;20987;-63
2022/05/28 11:44:37;;;;;;;3.72;2.70;;;;;;;15.29;71.46;95402.33;1785023;80;21053;-63
2022/05/28 11:47:28;;;;;;;3.75;2.95;;;;;;;15.34;71.02;95405.67;1784746;80;20979;-63
2022/05/28 11:53:11;;;;;;;5.12;3.27;;;;;;;15.39;72.14;95392.67;1784833;80;21516;-63
2022/05/28 11:55:42;;;;;;;3.37;2.72;;;;;;;15.47;72.04;95397.20;1785008;80;21042;-63
2022/05/28 11:58:19;;;;;;;4.60;2.98;;;;;;;15.57;72.36;95397.22;1785055;80;21014;-63
2022/05/28 12:01:02;;;;;;;6.50;5.30;;;;;;;15.53;71.46;95391.18;1784738;80;21006;-63
2022/05/28 12:03:30;;;;;;;2.83;2.62;;;;;;;15.47;71.91;95394.55;1785151;80;21002;-63
2022/05/28 12:06:30;;;;;;;1.55;1.45;;;;;;;15.46;70.04;95392.83;1785008;80;20979;-63
2022/05/28 12:09:19;;;;;;;2.62;1.45;;;;;;;15.46;66.34;95389.70;1784957;80;20975;-63
2022/05/28 12:12:20;;;;;;;3.25;1.67;;;;;;;15.32;64.86;95390.70;1784972;80;20955;-63
2022/05/28 12:15:20;;;;;;;2.77;2.30;;;;;;;15.21;65.83;95376.53;1784809;80;21464;-63
2022/05/28 12:18:20;;;;;;;4.40;3.00;;;;;;;15.21;65.83;95376.53;1784826;80;21018;-63
2022/05/28 12:20:54;;;;;;;6.92;4.05;;;;;;;15.14;65.28;95367.96;1784585;80;21011;-63
2022/05/28 12:23:36;;;;;;;4.95;3.10;;;;;;;15.04;64.53;95362.58;1784911;80;21014;-63
2022/05/28 12:26:48;;;;;;;5.60;3.20;;;;;;;15.01;65.87;95361.38;1784861;80;21030;-63